sensor_id;sensor_type;location;lat;lon;timestamp;P1;durP1;ratioP1;P2;durP2;ratioP2
59649;SDS011;46162;57.568;25.814;2024-01-30T00:00:09;31.25;;;17.52;;
59649;SDS011;46162;57.568;25.814;2024-01-30T00:02:38;36.25;;;18.17;;
59649;SDS011;46162;57.568;25.814;2024-01-30T00:05:06;35.83;;;19.35;;
59649;SDS011;46162;57.568;25.814;2024-01-30T00:07:36;35.72;;;19.00;;
59649;SDS011;46162;57.568;25.814;2024-01-30T00:10:04;36.13;;;18.60;;
59649;SDS011;46162;57.568;25.814;2024-01-30T00:12:34;35.47;;;18.65;;
59649;SDS011;46162;57.568;25.814;2024-01-30T00:15:04;36.22;;;18.80;;
59649;SDS011;46162;57.568;25.814;2024-01-30T00:17:36;38.38;;;18.30;;
59649;SDS011;46162;57.568;25.814;2024-01-30T00:20:05;34.35;;;18.45;;
59649;SDS011;46162;57.568;25.814;2024-01-30T00:22:36;39.38;;;20.27;;
59649;SDS011;46162;57.568;25.814;2024-01-30T00:25:05;36.13;;;19.20;;
59649;SDS011;46162;57.568;25.814;2024-01-30T00:27:34;33.08;;;18.58;;
59649;SDS011;46162;57.568;25.814;2024-01-30T00:30:04;36.97;;;18.55;;
59649;SDS011;46162;57.568;25.814;2024-01-30T00:32:34;31.08;;;16.70;;
59649;SDS011;46162;57.568;25.814;2024-01-30T00:35:02;31.58;;;17.63;;
59649;SDS011;46162;57.568;25.814;2024-01-30T00:37:31;31.48;;;19.25;;
59649;SDS011;46162;57.568;25.814;2024-01-30T00:40:00;32.67;;;18.33;;
59649;SDS011;46162;57.568;25.814;2024-01-30T00:42:28;36.88;;;19.00;;
59649;SDS011;46162;57.568;25.814;2024-01-30T00:44:57;35.03;;;17.65;;
59649;SDS011;46162;57.568;25.814;2024-01-30T00:47:27;34.17;;;18.52;;
59649;SDS011;46162;57.568;25.814;2024-01-30T00:49:56;32.53;;;17.35;;
59649;SDS011;46162;57.568;25.814;2024-01-30T00:52:25;38.13;;;20.23;;
59649;SDS011;46162;57.568;25.814;2024-01-30T00:54:54;37.78;;;19.98;;
59649;SDS011;46162;57.568;25.814;2024-01-30T00:57:23;33.95;;;18.40;;
59649;SDS011;46162;57.568;25.814;2024-01-30T00:59:51;36.85;;;19.40;;
59649;SDS011;46162;57.568;25.814;2024-01-30T01:02:20;31.90;;;18.38;;
59649;SDS011;46162;57.568;25.814;2024-01-30T01:04:50;32.22;;;17.38;;
59649;SDS011;46162;57.568;25.814;2024-01-30T01:07:18;34.08;;;19.35;;
59649;SDS011;46162;57.568;25.814;2024-01-30T01:09:47;33.85;;;18.10;;
59649;SDS011;46162;57.568;25.814;2024-01-30T01:12:16;36.13;;;19.02;;
59649;SDS011;46162;57.568;25.814;2024-01-30T01:14:44;38.85;;;19.88;;
59649;SDS011;46162;57.568;25.814;2024-01-30T01:17:13;36.38;;;19.55;;
59649;SDS011;46162;57.568;25.814;2024-01-30T01:19:41;33.33;;;18.50;;
59649;SDS011;46162;57.568;25.814;2024-01-30T01:22:12;35.78;;;18.45;;
59649;SDS011;46162;57.568;25.814;2024-01-30T01:24:40;34.05;;;19.65;;
59649;SDS011;46162;57.568;25.814;2024-01-30T01:27:09;38.20;;;20.10;;
59649;SDS011;46162;57.568;25.814;2024-01-30T01:29:38;33.63;;;18.95;;
59649;SDS011;46162;57.568;25.814;2024-01-30T01:32:06;35.08;;;18.85;;
59649;SDS011;46162;57.568;25.814;2024-01-30T01:34:35;35.83;;;18.90;;
59649;SDS011;46162;57.568;25.814;2024-01-30T01:37:04;33.75;;;18.83;;
59649;SDS011;46162;57.568;25.814;2024-01-30T01:39:34;34.35;;;19.05;;
59649;SDS011;46162;57.568;25.814;2024-01-30T01:42:03;34.72;;;18.50;;
59649;SDS011;46162;57.568;25.814;2024-01-30T01:44:32;32.63;;;18.40;;
59649;SDS011;46162;57.568;25.814;2024-01-30T01:47:00;31.52;;;18.55;;
59649;SDS011;46162;57.568;25.814;2024-01-30T01:49:30;32.90;;;18.88;;
59649;SDS011;46162;57.568;25.814;2024-01-30T01:51:59;35.15;;;19.70;;
59649;SDS011;46162;57.568;25.814;2024-01-30T01:54:29;36.17;;;19.02;;
59649;SDS011;46162;57.568;25.814;2024-01-30T01:57:00;39.87;;;20.60;;
59649;SDS011;46162;57.568;25.814;2024-01-30T01:59:28;37.33;;;20.17;;
59649;SDS011;46162;57.568;25.814;2024-01-30T02:01:57;38.22;;;19.92;;
59649;SDS011;46162;57.568;25.814;2024-01-30T02:04:26;34.63;;;19.05;;
59649;SDS011;46162;57.568;25.814;2024-01-30T02:06:55;36.00;;;19.83;;
59649;SDS011;46162;57.568;25.814;2024-01-30T02:09:24;32.35;;;19.02;;
59649;SDS011;46162;57.568;25.814;2024-01-30T02:11:52;38.05;;;19.85;;
59649;SDS011;46162;57.568;25.814;2024-01-30T02:14:23;36.97;;;19.35;;
59649;SDS011;46162;57.568;25.814;2024-01-30T02:16:56;37.47;;;18.95;;
59649;SDS011;46162;57.568;25.814;2024-01-30T02:19:24;34.53;;;20.08;;
59649;SDS011;46162;57.568;25.814;2024-01-30T02:21:55;32.72;;;18.40;;
59649;SDS011;46162;57.568;25.814;2024-01-30T02:24:24;35.42;;;19.67;;
59649;SDS011;46162;57.568;25.814;2024-01-30T02:26:52;34.00;;;18.92;;
59649;SDS011;46162;57.568;25.814;2024-01-30T02:29:21;36.92;;;19.77;;
59649;SDS011;46162;57.568;25.814;2024-01-30T02:31:49;35.35;;;19.25;;
59649;SDS011;46162;57.568;25.814;2024-01-30T02:34:19;32.55;;;18.67;;
59649;SDS011;46162;57.568;25.814;2024-01-30T02:36:48;31.38;;;18.77;;
59649;SDS011;46162;57.568;25.814;2024-01-30T02:39:18;31.30;;;17.92;;
59649;SDS011;46162;57.568;25.814;2024-01-30T02:41:47;34.50;;;17.83;;
59649;SDS011;46162;57.568;25.814;2024-01-30T02:44:15;36.00;;;18.42;;
59649;SDS011;46162;57.568;25.814;2024-01-30T02:46:44;31.25;;;18.17;;
59649;SDS011;46162;57.568;25.814;2024-01-30T02:49:12;32.72;;;18.15;;
59649;SDS011;46162;57.568;25.814;2024-01-30T02:51:41;30.30;;;18.27;;
59649;SDS011;46162;57.568;25.814;2024-01-30T02:54:10;34.75;;;18.48;;
59649;SDS011;46162;57.568;25.814;2024-01-30T02:56:40;32.78;;;18.65;;
59649;SDS011;46162;57.568;25.814;2024-01-30T02:59:09;31.15;;;18.73;;
59649;SDS011;46162;57.568;25.814;2024-01-30T03:01:43;30.55;;;17.77;;
59649;SDS011;46162;57.568;25.814;2024-01-30T03:04:13;32.65;;;18.15;;
59649;SDS011;46162;57.568;25.814;2024-01-30T03:06:44;31.85;;;16.90;;
59649;SDS011;46162;57.568;25.814;2024-01-30T03:09:15;29.70;;;17.70;;
59649;SDS011;46162;57.568;25.814;2024-01-30T03:11:46;32.20;;;18.25;;
59649;SDS011;46162;57.568;25.814;2024-01-30T03:14:15;34.13;;;18.08;;
59649;SDS011;46162;57.568;25.814;2024-01-30T03:16:44;30.05;;;17.02;;
59649;SDS011;46162;57.568;25.814;2024-01-30T03:19:12;33.55;;;19.23;;
59649;SDS011;46162;57.568;25.814;2024-01-30T03:21:41;31.45;;;18.08;;
59649;SDS011;46162;57.568;25.814;2024-01-30T03:24:10;34.45;;;19.65;;
59649;SDS011;46162;57.568;25.814;2024-01-30T03:26:38;33.00;;;19.35;;
59649;SDS011;46162;57.568;25.814;2024-01-30T03:29:08;33.58;;;19.15;;
59649;SDS011;46162;57.568;25.814;2024-01-30T03:31:38;37.00;;;20.98;;
59649;SDS011;46162;57.568;25.814;2024-01-30T03:34:07;34.55;;;20.50;;
59649;SDS011;46162;57.568;25.814;2024-01-30T03:36:36;32.97;;;18.80;;
59649;SDS011;46162;57.568;25.814;2024-01-30T03:39:04;35.10;;;19.65;;
59649;SDS011;46162;57.568;25.814;2024-01-30T03:41:33;33.50;;;19.38;;
59649;SDS011;46162;57.568;25.814;2024-01-30T03:44:02;33.95;;;19.27;;
59649;SDS011;46162;57.568;25.814;2024-01-30T03:46:32;33.28;;;19.92;;
59649;SDS011;46162;57.568;25.814;2024-01-30T03:49:00;37.70;;;20.10;;
59649;SDS011;46162;57.568;25.814;2024-01-30T03:51:29;35.55;;;20.52;;
59649;SDS011;46162;57.568;25.814;2024-01-30T03:53:58;38.13;;;20.80;;
59649;SDS011;46162;57.568;25.814;2024-01-30T03:56:28;35.42;;;20.77;;
59649;SDS011;46162;57.568;25.814;2024-01-30T03:58:57;33.23;;;20.47;;
59649;SDS011;46162;57.568;25.814;2024-01-30T04:01:27;35.75;;;21.38;;
59649;SDS011;46162;57.568;25.814;2024-01-30T04:03:57;37.60;;;20.92;;
59649;SDS011;46162;57.568;25.814;2024-01-30T04:06:27;34.88;;;20.98;;
59649;SDS011;46162;57.568;25.814;2024-01-30T04:08:56;34.88;;;19.60;;
59649;SDS011;46162;57.568;25.814;2024-01-30T04:11:27;35.20;;;20.48;;
59649;SDS011;46162;57.568;25.814;2024-01-30T04:13:56;34.50;;;19.60;;
59649;SDS011;46162;57.568;25.814;2024-01-30T04:16:25;34.13;;;19.38;;
59649;SDS011;46162;57.568;25.814;2024-01-30T04:18:54;33.67;;;20.10;;
59649;SDS011;46162;57.568;25.814;2024-01-30T04:21:24;34.80;;;19.65;;
59649;SDS011;46162;57.568;25.814;2024-01-30T04:23:53;33.15;;;19.23;;
59649;SDS011;46162;57.568;25.814;2024-01-30T04:26:23;33.03;;;19.63;;
59649;SDS011;46162;57.568;25.814;2024-01-30T04:28:52;32.95;;;19.30;;
59649;SDS011;46162;57.568;25.814;2024-01-30T04:31:21;31.80;;;18.77;;
59649;SDS011;46162;57.568;25.814;2024-01-30T04:33:50;34.03;;;19.23;;
59649;SDS011;46162;57.568;25.814;2024-01-30T04:36:19;32.85;;;19.73;;
59649;SDS011;46162;57.568;25.814;2024-01-30T04:38:49;30.42;;;18.90;;
59649;SDS011;46162;57.568;25.814;2024-01-30T04:41:18;34.17;;;20.02;;
59649;SDS011;46162;57.568;25.814;2024-01-30T04:43:47;35.35;;;20.58;;
59649;SDS011;46162;57.568;25.814;2024-01-30T04:46:16;35.38;;;19.38;;
59649;SDS011;46162;57.568;25.814;2024-01-30T04:48:45;37.47;;;20.50;;
59649;SDS011;46162;57.568;25.814;2024-01-30T04:51:14;34.10;;;20.88;;
59649;SDS011;46162;57.568;25.814;2024-01-30T04:53:42;34.78;;;20.35;;
59649;SDS011;46162;57.568;25.814;2024-01-30T04:56:13;33.70;;;19.70;;
59649;SDS011;46162;57.568;25.814;2024-01-30T04:58:41;31.23;;;20.07;;
59649;SDS011;46162;57.568;25.814;2024-01-30T05:01:14;34.63;;;20.98;;
59649;SDS011;46162;57.568;25.814;2024-01-30T05:03:43;32.92;;;18.92;;
59649;SDS011;46162;57.568;25.814;2024-01-30T05:06:12;34.60;;;20.63;;
59649;SDS011;46162;57.568;25.814;2024-01-30T05:08:41;33.45;;;19.77;;
59649;SDS011;46162;57.568;25.814;2024-01-30T05:11:10;32.53;;;20.20;;
59649;SDS011;46162;57.568;25.814;2024-01-30T05:13:40;34.20;;;19.10;;
59649;SDS011;46162;57.568;25.814;2024-01-30T05:16:09;34.87;;;19.33;;
59649;SDS011;46162;57.568;25.814;2024-01-30T05:18:38;31.10;;;19.17;;
59649;SDS011;46162;57.568;25.814;2024-01-30T05:21:07;29.77;;;18.70;;
59649;SDS011;46162;57.568;25.814;2024-01-30T05:23:36;33.58;;;19.30;;
59649;SDS011;46162;57.568;25.814;2024-01-30T05:26:04;31.17;;;18.63;;
59649;SDS011;46162;57.568;25.814;2024-01-30T05:28:33;30.45;;;18.65;;
59649;SDS011;46162;57.568;25.814;2024-01-30T05:31:04;30.98;;;18.75;;
59649;SDS011;46162;57.568;25.814;2024-01-30T05:33:33;29.50;;;18.60;;
59649;SDS011;46162;57.568;25.814;2024-01-30T05:36:02;35.35;;;19.35;;
59649;SDS011;46162;57.568;25.814;2024-01-30T05:38:31;34.00;;;19.98;;
59649;SDS011;46162;57.568;25.814;2024-01-30T05:41:00;29.88;;;19.15;;
59649;SDS011;46162;57.568;25.814;2024-01-30T05:43:29;31.15;;;19.17;;
59649;SDS011;46162;57.568;25.814;2024-01-30T05:45:58;35.83;;;19.60;;
59649;SDS011;46162;57.568;25.814;2024-01-30T05:48:28;33.45;;;20.35;;
59649;SDS011;46162;57.568;25.814;2024-01-30T05:50:58;35.97;;;20.42;;
59649;SDS011;46162;57.568;25.814;2024-01-30T05:53:28;31.67;;;19.98;;
59649;SDS011;46162;57.568;25.814;2024-01-30T05:55:56;33.70;;;19.75;;
59649;SDS011;46162;57.568;25.814;2024-01-30T05:58:25;35.28;;;19.67;;
59649;SDS011;46162;57.568;25.814;2024-01-30T06:00:54;31.05;;;19.30;;
59649;SDS011;46162;57.568;25.814;2024-01-30T06:03:25;31.10;;;19.10;;
59649;SDS011;46162;57.568;25.814;2024-01-30T06:05:55;29.65;;;19.00;;
59649;SDS011;46162;57.568;25.814;2024-01-30T06:08:24;34.17;;;18.73;;
59649;SDS011;46162;57.568;25.814;2024-01-30T06:10:53;32.20;;;18.27;;
59649;SDS011;46162;57.568;25.814;2024-01-30T06:13:22;29.02;;;18.33;;
59649;SDS011;46162;57.568;25.814;2024-01-30T06:15:51;32.13;;;18.92;;
59649;SDS011;46162;57.568;25.814;2024-01-30T06:18:20;32.10;;;18.67;;
59649;SDS011;46162;57.568;25.814;2024-01-30T06:20:48;31.65;;;18.75;;
59649;SDS011;46162;57.568;25.814;2024-01-30T06:23:19;30.80;;;18.25;;
59649;SDS011;46162;57.568;25.814;2024-01-30T06:25:48;30.23;;;18.95;;
59649;SDS011;46162;57.568;25.814;2024-01-30T06:28:17;32.67;;;18.77;;
59649;SDS011;46162;57.568;25.814;2024-01-30T06:30:46;30.73;;;18.83;;
59649;SDS011;46162;57.568;25.814;2024-01-30T06:33:15;29.98;;;18.13;;
59649;SDS011;46162;57.568;25.814;2024-01-30T06:35:44;31.38;;;18.42;;
59649;SDS011;46162;57.568;25.814;2024-01-30T06:38:12;33.53;;;19.23;;
59649;SDS011;46162;57.568;25.814;2024-01-30T06:40:44;31.75;;;19.20;;
59649;SDS011;46162;57.568;25.814;2024-01-30T06:43:12;34.05;;;19.67;;
59649;SDS011;46162;57.568;25.814;2024-01-30T06:45:41;32.70;;;19.27;;
59649;SDS011;46162;57.568;25.814;2024-01-30T06:48:11;31.40;;;19.27;;
59649;SDS011;46162;57.568;25.814;2024-01-30T06:50:39;28.65;;;17.83;;
59649;SDS011;46162;57.568;25.814;2024-01-30T06:53:08;32.15;;;18.75;;
59649;SDS011;46162;57.568;25.814;2024-01-30T06:55:37;30.48;;;18.50;;
59649;SDS011;46162;57.568;25.814;2024-01-30T06:58:07;28.05;;;16.65;;
59649;SDS011;46162;57.568;25.814;2024-01-30T07:00:36;32.70;;;18.47;;
59649;SDS011;46162;57.568;25.814;2024-01-30T07:03:05;27.98;;;17.58;;
59649;SDS011;46162;57.568;25.814;2024-01-30T07:05:34;32.17;;;17.77;;
59649;SDS011;46162;57.568;25.814;2024-01-30T07:08:03;29.30;;;17.60;;
59649;SDS011;46162;57.568;25.814;2024-01-30T07:10:32;30.17;;;17.75;;
59649;SDS011;46162;57.568;25.814;2024-01-30T07:13:01;29.27;;;17.45;;
59649;SDS011;46162;57.568;25.814;2024-01-30T07:15:32;30.98;;;19.02;;
59649;SDS011;46162;57.568;25.814;2024-01-30T07:18:01;31.45;;;18.88;;
59649;SDS011;46162;57.568;25.814;2024-01-30T07:20:30;34.15;;;19.17;;
59649;SDS011;46162;57.568;25.814;2024-01-30T07:23:00;29.85;;;18.73;;
59649;SDS011;46162;57.568;25.814;2024-01-30T07:25:30;31.70;;;19.10;;
59649;SDS011;46162;57.568;25.814;2024-01-30T07:27:59;33.35;;;19.75;;
59649;SDS011;46162;57.568;25.814;2024-01-30T07:30:28;33.80;;;18.65;;
59649;SDS011;46162;57.568;25.814;2024-01-30T07:32:58;33.13;;;20.20;;
59649;SDS011;46162;57.568;25.814;2024-01-30T07:35:27;32.45;;;19.10;;
59649;SDS011;46162;57.568;25.814;2024-01-30T07:37:57;36.97;;;20.67;;
59649;SDS011;46162;57.568;25.814;2024-01-30T07:40:26;32.15;;;19.35;;
59649;SDS011;46162;57.568;25.814;2024-01-30T07:42:54;32.53;;;19.77;;
59649;SDS011;46162;57.568;25.814;2024-01-30T07:45:23;34.13;;;19.30;;
59649;SDS011;46162;57.568;25.814;2024-01-30T07:47:54;32.70;;;20.70;;
59649;SDS011;46162;57.568;25.814;2024-01-30T07:50:24;34.58;;;19.95;;
59649;SDS011;46162;57.568;25.814;2024-01-30T07:52:55;29.05;;;18.40;;
59649;SDS011;46162;57.568;25.814;2024-01-30T07:55:25;32.97;;;20.48;;
59649;SDS011;46162;57.568;25.814;2024-01-30T07:57:56;32.33;;;18.95;;
59649;SDS011;46162;57.568;25.814;2024-01-30T08:00:26;31.73;;;19.38;;
59649;SDS011;46162;57.568;25.814;2024-01-30T08:02:56;35.08;;;20.05;;
59649;SDS011;46162;57.568;25.814;2024-01-30T08:05:30;33.90;;;20.00;;
59649;SDS011;46162;57.568;25.814;2024-01-30T08:07:59;34.55;;;20.98;;
59649;SDS011;46162;57.568;25.814;2024-01-30T08:10:28;34.47;;;21.10;;
59649;SDS011;46162;57.568;25.814;2024-01-30T08:12:57;33.30;;;19.85;;
59649;SDS011;46162;57.568;25.814;2024-01-30T08:15:26;33.28;;;20.95;;
59649;SDS011;46162;57.568;25.814;2024-01-30T08:17:55;34.75;;;20.50;;
59649;SDS011;46162;57.568;25.814;2024-01-30T08:20:26;38.17;;;21.98;;
59649;SDS011;46162;57.568;25.814;2024-01-30T08:22:56;36.13;;;21.90;;
59649;SDS011;46162;57.568;25.814;2024-01-30T08:25:25;36.13;;;21.33;;
59649;SDS011;46162;57.568;25.814;2024-01-30T08:27:54;37.20;;;21.38;;
59649;SDS011;46162;57.568;25.814;2024-01-30T08:30:25;37.30;;;20.75;;
59649;SDS011;46162;57.568;25.814;2024-01-30T08:32:53;38.00;;;22.60;;
59649;SDS011;46162;57.568;25.814;2024-01-30T08:35:23;37.28;;;21.67;;
59649;SDS011;46162;57.568;25.814;2024-01-30T08:37:52;39.20;;;22.48;;
59649;SDS011;46162;57.568;25.814;2024-01-30T08:40:22;36.00;;;21.80;;
59649;SDS011;46162;57.568;25.814;2024-01-30T08:42:51;36.78;;;22.48;;
59649;SDS011;46162;57.568;25.814;2024-01-30T08:45:22;36.10;;;20.95;;
59649;SDS011;46162;57.568;25.814;2024-01-30T08:47:50;35.85;;;20.73;;
59649;SDS011;46162;57.568;25.814;2024-01-30T08:50:19;40.70;;;22.80;;
59649;SDS011;46162;57.568;25.814;2024-01-30T08:52:48;38.67;;;22.15;;
59649;SDS011;46162;57.568;25.814;2024-01-30T08:55:17;36.15;;;22.02;;
59649;SDS011;46162;57.568;25.814;2024-01-30T08:57:48;40.97;;;23.55;;
59649;SDS011;46162;57.568;25.814;2024-01-30T09:00:17;38.10;;;22.40;;
59649;SDS011;46162;57.568;25.814;2024-01-30T09:02:46;36.58;;;20.77;;
59649;SDS011;46162;57.568;25.814;2024-01-30T09:05:18;35.25;;;22.20;;
59649;SDS011;46162;57.568;25.814;2024-01-30T09:07:47;41.58;;;23.38;;
59649;SDS011;46162;57.568;25.814;2024-01-30T09:10:16;37.75;;;22.23;;
59649;SDS011;46162;57.568;25.814;2024-01-30T09:15:17;39.45;;;21.23;;
59649;SDS011;46162;57.568;25.814;2024-01-30T09:17:50;39.17;;;21.75;;
59649;SDS011;46162;57.568;25.814;2024-01-30T09:20:19;44.90;;;25.33;;
59649;SDS011;46162;57.568;25.814;2024-01-30T09:22:49;43.55;;;23.73;;
59649;SDS011;46162;57.568;25.814;2024-01-30T09:25:18;44.17;;;24.80;;
59649;SDS011;46162;57.568;25.814;2024-01-30T09:27:47;47.72;;;24.92;;
59649;SDS011;46162;57.568;25.814;2024-01-30T09:30:17;44.00;;;25.55;;
59649;SDS011;46162;57.568;25.814;2024-01-30T09:32:46;46.25;;;25.13;;
59649;SDS011;46162;57.568;25.814;2024-01-30T09:35:15;40.75;;;23.52;;
59649;SDS011;46162;57.568;25.814;2024-01-30T09:37:44;49.20;;;27.75;;
59649;SDS011;46162;57.568;25.814;2024-01-30T09:40:13;46.38;;;26.08;;
59649;SDS011;46162;57.568;25.814;2024-01-30T09:42:46;46.25;;;26.30;;
59649;SDS011;46162;57.568;25.814;2024-01-30T09:45:18;48.35;;;28.17;;
59649;SDS011;46162;57.568;25.814;2024-01-30T09:47:47;51.17;;;29.25;;
59649;SDS011;46162;57.568;25.814;2024-01-30T09:50:17;52.38;;;29.83;;
59649;SDS011;46162;57.568;25.814;2024-01-30T09:52:47;57.33;;;31.60;;
59649;SDS011;46162;57.568;25.814;2024-01-30T09:55:16;51.28;;;30.60;;
59649;SDS011;46162;57.568;25.814;2024-01-30T09:57:45;52.70;;;30.27;;
59649;SDS011;46162;57.568;25.814;2024-01-30T10:00:16;51.55;;;30.60;;
59649;SDS011;46162;57.568;25.814;2024-01-30T10:02:45;50.90;;;31.15;;
59649;SDS011;46162;57.568;25.814;2024-01-30T10:05:15;51.42;;;32.05;;
59649;SDS011;46162;57.568;25.814;2024-01-30T10:07:52;54.47;;;31.88;;
59649;SDS011;46162;57.568;25.814;2024-01-30T10:10:23;51.53;;;30.50;;
59649;SDS011;46162;57.568;25.814;2024-01-30T10:12:52;51.72;;;31.10;;
59649;SDS011;46162;57.568;25.814;2024-01-30T10:15:22;50.70;;;29.95;;
59649;SDS011;46162;57.568;25.814;2024-01-30T10:20:20;51.17;;;27.67;;
59649;SDS011;46162;57.568;25.814;2024-01-30T10:22:49;49.90;;;26.95;;
59649;SDS011;46162;57.568;25.814;2024-01-30T10:25:18;48.90;;;28.17;;
59649;SDS011;46162;57.568;25.814;2024-01-30T10:27:47;49.97;;;28.77;;
59649;SDS011;46162;57.568;25.814;2024-01-30T10:30:22;47.88;;;27.10;;
59649;SDS011;46162;57.568;25.814;2024-01-30T10:32:52;43.97;;;25.88;;
59649;SDS011;46162;57.568;25.814;2024-01-30T10:35:21;44.85;;;25.27;;
59649;SDS011;46162;57.568;25.814;2024-01-30T10:37:50;46.83;;;25.00;;
59649;SDS011;46162;57.568;25.814;2024-01-30T10:40:19;45.10;;;26.17;;
59649;SDS011;46162;57.568;25.814;2024-01-30T10:42:52;47.40;;;26.17;;
59649;SDS011;46162;57.568;25.814;2024-01-30T10:45:25;45.88;;;26.50;;
59649;SDS011;46162;57.568;25.814;2024-01-30T10:47:55;44.65;;;25.80;;
59649;SDS011;46162;57.568;25.814;2024-01-30T10:50:27;43.67;;;25.80;;
59649;SDS011;46162;57.568;25.814;2024-01-30T10:53:00;44.55;;;25.08;;
59649;SDS011;46162;57.568;25.814;2024-01-30T10:55:31;42.65;;;23.98;;
59649;SDS011;46162;57.568;25.814;2024-01-30T10:58:00;43.45;;;23.52;;
59649;SDS011;46162;57.568;25.814;2024-01-30T11:00:31;43.72;;;24.83;;
59649;SDS011;46162;57.568;25.814;2024-01-30T11:03:01;43.47;;;23.70;;
59649;SDS011;46162;57.568;25.814;2024-01-30T11:05:32;45.85;;;24.60;;
59649;SDS011;46162;57.568;25.814;2024-01-30T11:08:10;48.25;;;25.58;;
59649;SDS011;46162;57.568;25.814;2024-01-30T11:10:46;45.13;;;24.10;;
59649;SDS011;46162;57.568;25.814;2024-01-30T11:13:15;44.17;;;24.88;;
59649;SDS011;46162;57.568;25.814;2024-01-30T11:15:46;44.83;;;24.35;;
59649;SDS011;46162;57.568;25.814;2024-01-30T11:18:22;45.03;;;24.42;;
59649;SDS011;46162;57.568;25.814;2024-01-30T11:20:52;44.25;;;23.55;;
59649;SDS011;46162;57.568;25.814;2024-01-30T11:23:25;44.78;;;23.77;;
59649;SDS011;46162;57.568;25.814;2024-01-30T11:25:55;45.17;;;24.98;;
59649;SDS011;46162;57.568;25.814;2024-01-30T11:28:25;45.03;;;24.95;;
59649;SDS011;46162;57.568;25.814;2024-01-30T11:31:06;42.70;;;24.65;;
59649;SDS011;46162;57.568;25.814;2024-01-30T11:33:35;44.47;;;23.63;;
59649;SDS011;46162;57.568;25.814;2024-01-30T11:36:05;47.42;;;25.30;;
59649;SDS011;46162;57.568;25.814;2024-01-30T11:38:35;40.85;;;23.60;;
59649;SDS011;46162;57.568;25.814;2024-01-30T11:41:04;40.83;;;23.65;;
59649;SDS011;46162;57.568;25.814;2024-01-30T11:43:33;40.88;;;24.23;;
59649;SDS011;46162;57.568;25.814;2024-01-30T11:46:02;42.60;;;24.23;;
59649;SDS011;46162;57.568;25.814;2024-01-30T11:48:32;43.08;;;24.65;;
59649;SDS011;46162;57.568;25.814;2024-01-30T11:51:01;43.75;;;24.15;;
59649;SDS011;46162;57.568;25.814;2024-01-30T11:53:30;44.58;;;24.00;;
59649;SDS011;46162;57.568;25.814;2024-01-30T11:55:59;44.40;;;25.45;;
59649;SDS011;46162;57.568;25.814;2024-01-30T11:58:28;41.42;;;23.58;;
59649;SDS011;46162;57.568;25.814;2024-01-30T12:00:57;39.78;;;22.85;;
59649;SDS011;46162;57.568;25.814;2024-01-30T12:03:27;43.15;;;24.58;;
59649;SDS011;46162;57.568;25.814;2024-01-30T12:05:57;43.97;;;24.50;;
59649;SDS011;46162;57.568;25.814;2024-01-30T12:10:56;42.90;;;22.75;;
59649;SDS011;46162;57.568;25.814;2024-01-30T12:13:26;42.95;;;22.55;;
59649;SDS011;46162;57.568;25.814;2024-01-30T12:15:59;43.83;;;24.08;;
59649;SDS011;46162;57.568;25.814;2024-01-30T12:18:29;44.55;;;24.20;;
59649;SDS011;46162;57.568;25.814;2024-01-30T12:21:00;43.90;;;23.23;;
59649;SDS011;46162;57.568;25.814;2024-01-30T12:23:34;45.45;;;24.85;;
59649;SDS011;46162;57.568;25.814;2024-01-30T12:26:03;41.72;;;23.30;;
59649;SDS011;46162;57.568;25.814;2024-01-30T12:28:34;46.83;;;25.88;;
59649;SDS011;46162;57.568;25.814;2024-01-30T12:31:03;41.67;;;24.38;;
59649;SDS011;46162;57.568;25.814;2024-01-30T12:33:32;45.53;;;25.40;;
59649;SDS011;46162;57.568;25.814;2024-01-30T12:36:02;43.25;;;23.20;;
59649;SDS011;46162;57.568;25.814;2024-01-30T12:38:33;43.42;;;24.77;;
59649;SDS011;46162;57.568;25.814;2024-01-30T12:41:01;44.08;;;24.13;;
59649;SDS011;46162;57.568;25.814;2024-01-30T12:43:30;44.83;;;24.65;;
59649;SDS011;46162;57.568;25.814;2024-01-30T12:46:05;44.95;;;24.35;;
59649;SDS011;46162;57.568;25.814;2024-01-30T12:48:34;49.88;;;25.50;;
59649;SDS011;46162;57.568;25.814;2024-01-30T12:51:05;47.33;;;24.48;;
59649;SDS011;46162;57.568;25.814;2024-01-30T12:53:34;45.92;;;25.17;;
59649;SDS011;46162;57.568;25.814;2024-01-30T12:56:03;44.13;;;23.77;;
59649;SDS011;46162;57.568;25.814;2024-01-30T12:58:32;44.72;;;25.48;;
59649;SDS011;46162;57.568;25.814;2024-01-30T13:01:00;44.88;;;25.52;;
59649;SDS011;46162;57.568;25.814;2024-01-30T13:03:30;47.03;;;25.52;;
59649;SDS011;46162;57.568;25.814;2024-01-30T13:08:31;46.95;;;24.02;;
59649;SDS011;46162;57.568;25.814;2024-01-30T13:10:59;43.80;;;23.15;;
59649;SDS011;46162;57.568;25.814;2024-01-30T13:13:28;46.85;;;24.50;;
59649;SDS011;46162;57.568;25.814;2024-01-30T13:15:59;38.28;;;22.75;;
59649;SDS011;46162;57.568;25.814;2024-01-30T13:18:28;42.33;;;23.20;;
59649;SDS011;46162;57.568;25.814;2024-01-30T13:20:57;41.60;;;23.80;;
59649;SDS011;46162;57.568;25.814;2024-01-30T13:23:26;43.72;;;23.20;;
59649;SDS011;46162;57.568;25.814;2024-01-30T13:25:56;42.80;;;24.60;;
59649;SDS011;46162;57.568;25.814;2024-01-30T13:28:25;45.03;;;24.15;;
59649;SDS011;46162;57.568;25.814;2024-01-30T13:30:54;43.10;;;22.42;;
59649;SDS011;46162;57.568;25.814;2024-01-30T13:33:23;39.40;;;22.75;;
59649;SDS011;46162;57.568;25.814;2024-01-30T13:35:52;40.90;;;23.23;;
59649;SDS011;46162;57.568;25.814;2024-01-30T13:38:21;36.63;;;21.77;;
59649;SDS011;46162;57.568;25.814;2024-01-30T13:40:49;39.90;;;22.63;;
59649;SDS011;46162;57.568;25.814;2024-01-30T13:43:20;37.35;;;21.08;;
59649;SDS011;46162;57.568;25.814;2024-01-30T13:45:49;41.30;;;22.67;;
59649;SDS011;46162;57.568;25.814;2024-01-30T13:48:18;36.88;;;22.02;;
59649;SDS011;46162;57.568;25.814;2024-01-30T13:50:47;41.45;;;22.50;;
59649;SDS011;46162;57.568;25.814;2024-01-30T13:53:16;32.65;;;20.17;;
59649;SDS011;46162;57.568;25.814;2024-01-30T13:55:45;35.65;;;21.58;;
59649;SDS011;46162;57.568;25.814;2024-01-30T13:58:14;34.90;;;20.23;;
59649;SDS011;46162;57.568;25.814;2024-01-30T14:00:44;35.72;;;20.60;;
59649;SDS011;46162;57.568;25.814;2024-01-30T14:03:13;34.20;;;20.80;;
59649;SDS011;46162;57.568;25.814;2024-01-30T14:05:42;37.50;;;21.02;;
59649;SDS011;46162;57.568;25.814;2024-01-30T14:08:11;34.83;;;19.98;;
59649;SDS011;46162;57.568;25.814;2024-01-30T14:10:40;34.50;;;20.08;;
59649;SDS011;46162;57.568;25.814;2024-01-30T14:13:08;35.00;;;19.77;;
59649;SDS011;46162;57.568;25.814;2024-01-30T14:15:38;36.08;;;20.40;;
59649;SDS011;46162;57.568;25.814;2024-01-30T14:18:08;33.35;;;20.63;;
59649;SDS011;46162;57.568;25.814;2024-01-30T14:20:38;38.97;;;21.95;;
59649;SDS011;46162;57.568;25.814;2024-01-30T14:23:07;37.00;;;19.88;;
59649;SDS011;46162;57.568;25.814;2024-01-30T14:25:36;37.60;;;20.75;;
59649;SDS011;46162;57.568;25.814;2024-01-30T14:28:05;35.00;;;20.10;;
59649;SDS011;46162;57.568;25.814;2024-01-30T14:30:34;33.42;;;20.58;;